createdAt,value
2019-02-20T00:00:51.896Z,19.62
2019-02-20T00:03:18.771Z,20.35
2019-02-20T00:05:45.846Z,25.20
2019-02-20T00:08:12.810Z,24.52
2019-02-20T00:10:39.773Z,19.62
2019-02-20T00:13:06.847Z,16.23
2019-02-20T00:15:33.709Z,19.45
2019-02-20T00:18:00.461Z,16.65
2019-02-20T00:20:27.332Z,13.58
2019-02-20T00:22:54.411Z,16.77
2019-02-20T00:25:21.577Z,18.57
2019-02-20T00:27:48.282Z,18.52
2019-02-20T00:30:14.990Z,21.42
2019-02-20T00:32:41.961Z,22.73
2019-02-20T00:35:08.739Z,24.77
2019-02-20T00:37:35.847Z,18.07
2019-02-20T00:40:02.655Z,26.33
2019-02-20T00:42:29.589Z,19.27
2019-02-20T00:44:56.293Z,24.07
2019-02-20T00:47:23.050Z,18.12
2019-02-20T00:49:49.715Z,16.50
2019-02-20T00:52:16.931Z,18.80
2019-02-20T00:54:43.646Z,18.98
2019-02-20T00:57:10.788Z,19.45
2019-02-20T00:59:37.571Z,18.55
2019-02-20T01:02:05.880Z,16.48
2019-02-20T01:04:32.549Z,16.62
2019-02-20T01:06:59.501Z,20.90
2019-02-20T01:09:26.175Z,22.20
2019-02-20T01:11:53.392Z,17.48
2019-02-20T01:14:20.344Z,18.00
2019-02-20T01:16:48.286Z,18.65
2019-02-20T01:19:14.940Z,18.65
2019-02-20T01:21:41.516Z,15.50
2019-02-20T01:24:09.489Z,18.95
2019-02-20T01:26:39.227Z,16.23
2019-02-20T01:29:06.091Z,18.23
2019-02-20T01:31:32.655Z,16.02
2019-02-20T01:33:59.726Z,19.62
2019-02-20T01:36:26.688Z,17.87
2019-02-20T01:38:53.650Z,21.97
2019-02-20T01:41:20.431Z,19.80
2019-02-20T01:43:47.277Z,17.23
2019-02-20T01:46:13.942Z,18.60
2019-02-20T01:48:41.010Z,17.75
2019-02-20T01:51:07.774Z,21.70
2019-02-20T01:53:34.687Z,18.40
2019-02-20T01:56:01.389Z,18.37
2019-02-20T01:58:28.530Z,20.35
2019-02-20T02:00:55.158Z,25.02
2019-02-20T02:03:21.842Z,34.10
2019-02-20T02:05:48.520Z,23.22
2019-02-20T02:08:15.338Z,18.07
2019-02-20T02:10:41.875Z,27.17
2019-02-20T02:13:08.935Z,166.15
2019-02-20T02:15:35.476Z,89.85
2019-02-20T02:18:02.378Z,45.23
2019-02-20T02:20:29.011Z,33.70
2019-02-20T02:22:55.670Z,35.75
2019-02-20T02:25:22.354Z,34.53
2019-02-20T02:27:48.954Z,38.65
2019-02-20T02:30:15.961Z,41.28
2019-02-20T02:32:42.421Z,35.58
2019-02-20T02:35:09.090Z,35.55
2019-02-20T02:37:35.737Z,25.85
2019-02-20T02:40:02.457Z,29.50
2019-02-20T02:42:29.089Z,33.35
2019-02-20T02:44:55.738Z,28.77
2019-02-20T02:47:22.348Z,27.85
2019-02-20T02:49:48.867Z,32.13
2019-02-20T02:52:15.359Z,24.50
2019-02-20T02:54:42.269Z,26.15
2019-02-20T02:57:08.774Z,21.40
2019-02-20T02:59:35.486Z,28.20
2019-02-20T03:02:02.020Z,26.15
2019-02-20T03:04:28.704Z,31.02
2019-02-20T03:06:55.319Z,30.70
2019-02-20T03:09:21.956Z,32.85
2019-02-20T03:11:48.427Z,39.98
2019-02-20T03:14:14.978Z,32.90
2019-02-20T03:16:41.412Z,41.58
2019-02-20T03:19:07.943Z,39.25
2019-02-20T03:21:34.444Z,38.42
2019-02-20T03:24:01.053Z,35.73
2019-02-20T03:26:27.631Z,36.08
2019-02-20T03:28:54.310Z,40.50
2019-02-20T03:31:20.807Z,32.50
2019-02-20T03:33:47.415Z,44.73
2019-02-20T03:36:13.913Z,34.40
2019-02-20T03:38:40.514Z,36.33
2019-02-20T03:41:07.017Z,32.45
2019-02-20T03:43:33.636Z,39.55
2019-02-20T03:46:00.232Z,38.98
2019-02-20T03:48:26.841Z,36.63
2019-02-20T03:50:53.315Z,33.08
2019-02-20T03:53:19.837Z,27.95
2019-02-20T03:55:46.347Z,36.90
2019-02-20T03:58:12.849Z,31.80
2019-02-20T04:00:39.354Z,31.50
2019-02-20T04:03:05.952Z,19.80
2019-02-20T04:05:32.511Z,22.52
2019-02-20T04:07:59.034Z,20.25
2019-02-20T04:10:25.592Z,19.17
2019-02-20T04:12:52.148Z,27.62
2019-02-20T04:15:18.800Z,26.82
2019-02-20T04:17:45.371Z,22.25
2019-02-20T04:20:11.872Z,32.65
2019-02-20T04:22:38.350Z,23.80
2019-02-20T04:25:05.002Z,24.75
2019-02-20T04:27:31.560Z,21.68
2019-02-20T04:29:58.103Z,24.52
2019-02-20T04:32:24.588Z,23.73
2019-02-20T04:34:51.130Z,28.75
2019-02-20T04:37:17.608Z,30.32
2019-02-20T04:39:44.149Z,25.62
2019-02-20T04:42:10.788Z,25.75
2019-02-20T04:44:37.506Z,19.15
2019-02-20T04:47:04.089Z,25.82
2019-02-20T04:49:30.766Z,28.65
2019-02-20T04:51:57.438Z,27.87
2019-02-20T04:54:24.169Z,34.00
2019-02-20T04:56:50.670Z,31.60
2019-02-20T04:59:17.228Z,27.02
2019-02-20T05:01:43.822Z,24.40
2019-02-20T05:04:10.339Z,30.48
2019-02-20T05:06:36.929Z,26.42
2019-02-20T05:09:03.447Z,33.33
2019-02-20T05:11:30.033Z,28.95
2019-02-20T05:13:56.621Z,36.17
2019-02-20T05:16:23.077Z,34.70
2019-02-20T05:18:49.666Z,31.40
2019-02-20T05:21:16.105Z,30.97
2019-02-20T05:23:42.967Z,23.73
2019-02-20T05:26:09.637Z,26.42
2019-02-20T05:28:36.212Z,28.75
2019-02-20T05:31:02.832Z,30.45
2019-02-20T05:33:29.470Z,29.60
2019-02-20T05:35:56.012Z,25.55
2019-02-20T05:38:22.472Z,25.62
2019-02-20T05:40:49.060Z,25.48
2019-02-20T05:43:15.560Z,26.52
2019-02-20T05:45:42.138Z,30.62
2019-02-20T05:48:08.722Z,28.00
2019-02-20T05:50:35.387Z,28.17
2019-02-20T05:53:02.008Z,26.93
2019-02-20T05:55:28.665Z,27.13
2019-02-20T05:57:55.169Z,26.80
2019-02-20T06:00:21.679Z,28.12
2019-02-20T06:02:48.191Z,26.45
2019-02-20T06:05:14.694Z,27.90
2019-02-20T06:07:41.149Z,20.97
2019-02-20T06:10:07.766Z,26.30
2019-02-20T06:12:35.314Z,31.93
2019-02-20T06:15:01.991Z,32.30
2019-02-20T06:17:28.458Z,44.65
2019-02-20T06:19:55.023Z,32.67
2019-02-20T06:22:21.437Z,32.80
2019-02-20T06:24:48.012Z,41.10
2019-02-20T06:27:14.455Z,45.83
2019-02-20T06:29:41.045Z,47.50
2019-02-20T06:32:07.636Z,41.90
2019-02-20T06:34:34.251Z,45.52
2019-02-20T06:37:00.825Z,44.45
2019-02-20T06:39:27.382Z,52.53
2019-02-20T06:41:53.832Z,40.00
2019-02-20T06:44:20.673Z,44.53
2019-02-20T06:46:47.181Z,58.25
2019-02-20T06:49:13.691Z,54.33
2019-02-20T06:51:40.526Z,52.75
2019-02-20T06:54:07.313Z,50.92
2019-02-20T06:56:34.071Z,38.98
2019-02-20T06:59:02.687Z,47.17
2019-02-20T07:01:29.696Z,38.92
2019-02-20T07:03:56.611Z,36.35
2019-02-20T07:06:23.570Z,35.15
2019-02-20T07:08:50.364Z,32.85
2019-02-20T07:11:17.293Z,31.52
2019-02-20T07:13:43.965Z,30.20
2019-02-20T07:16:11.091Z,23.67
2019-02-20T07:18:37.851Z,31.95
2019-02-20T07:23:37.258Z,33.02
2019-02-20T07:26:04.317Z,30.90
2019-02-20T07:28:30.893Z,32.38
2019-02-20T07:30:57.752Z,29.35
2019-02-20T07:33:24.673Z,28.42
2019-02-20T07:35:51.473Z,28.98
2019-02-20T07:38:17.923Z,30.08
2019-02-20T07:40:44.648Z,29.42
2019-02-20T07:43:11.427Z,26.80
2019-02-20T07:45:38.426Z,28.90
2019-02-20T07:48:05.182Z,30.32
2019-02-20T07:50:32.123Z,31.15
2019-02-20T07:52:58.827Z,28.27
2019-02-20T07:55:25.539Z,21.85
2019-02-20T07:57:51.995Z,25.50
2019-02-20T08:00:19.034Z,22.20
2019-02-20T08:02:45.965Z,21.20
2019-02-20T08:05:15.790Z,17.23
2019-02-20T08:07:42.453Z,24.12
2019-02-20T08:10:09.309Z,17.87
2019-02-20T08:12:35.991Z,20.72
2019-02-20T08:15:02.620Z,19.52
2019-02-20T08:17:29.412Z,26.30
2019-02-20T08:19:55.970Z,24.27
2019-02-20T08:22:22.937Z,25.02
2019-02-20T08:24:49.461Z,22.35
2019-02-20T08:27:17.245Z,21.37
2019-02-20T08:29:43.934Z,19.35
2019-02-20T08:32:10.702Z,15.15
2019-02-20T08:34:37.304Z,19.75
2019-02-20T08:37:03.972Z,15.48
2019-02-20T08:39:30.739Z,21.12
2019-02-20T08:41:57.399Z,16.62
2019-02-20T08:44:24.067Z,15.83
2019-02-20T08:46:50.746Z,21.97
2019-02-20T08:49:23.506Z,17.80
2019-02-20T08:51:50.624Z,19.90
2019-02-20T08:54:17.385Z,17.77
2019-02-20T08:56:44.266Z,14.00
2019-02-20T08:59:11.026Z,13.17
2019-02-20T09:01:38.096Z,16.47
2019-02-20T09:04:06.757Z,13.33
2019-02-20T09:06:33.656Z,15.23
2019-02-20T09:09:00.516Z,15.40
2019-02-20T09:11:27.377Z,16.50
2019-02-20T09:13:54.043Z,17.93
2019-02-20T09:16:20.706Z,13.80
2019-02-20T09:18:47.266Z,11.63
2019-02-20T09:21:14.084Z,21.82
2019-02-20T09:23:41.949Z,16.20
2019-02-20T09:26:08.561Z,17.95
2019-02-20T09:28:35.143Z,13.15
2019-02-20T09:31:01.860Z,13.58
2019-02-20T09:33:28.855Z,15.15
2019-02-20T09:35:55.478Z,14.05
2019-02-20T09:38:22.059Z,14.13
2019-02-20T09:40:48.910Z,12.25
2019-02-20T09:43:15.500Z,17.07
2019-02-20T09:45:44.454Z,15.75
2019-02-20T09:48:10.959Z,14.90
2019-02-20T09:50:37.851Z,19.95
2019-02-20T09:53:04.396Z,15.28
2019-02-20T09:55:31.371Z,16.32
2019-02-20T09:57:58.522Z,13.40
2019-02-20T10:00:25.199Z,15.67
2019-02-20T10:02:51.855Z,15.72
2019-02-20T10:05:18.476Z,18.02
2019-02-20T10:07:45.260Z,14.68
2019-02-20T10:10:12.023Z,16.20
2019-02-20T10:12:38.708Z,18.25
2019-02-20T10:15:05.323Z,14.93
2019-02-20T10:17:54.900Z,12.95
2019-02-20T10:20:00.412Z,14.38
2019-02-20T10:22:26.976Z,20.05
2019-02-20T10:24:53.519Z,11.53
2019-02-20T10:27:20.197Z,12.18
2019-02-20T10:29:46.917Z,16.17
2019-02-20T10:32:13.554Z,13.88
2019-02-20T10:34:40.241Z,12.68
2019-02-20T10:37:06.914Z,14.53
2019-02-20T10:39:33.808Z,14.55
2019-02-20T10:42:00.582Z,16.10
2019-02-20T10:44:27.218Z,17.48
2019-02-20T10:46:53.814Z,14.05
2019-02-20T10:49:20.368Z,10.32
2019-02-20T10:51:47.102Z,8.50
2019-02-20T10:54:13.935Z,11.20
2019-02-20T10:56:40.783Z,10.85
2019-02-20T10:59:07.401Z,13.72
2019-02-20T11:01:34.151Z,14.75
2019-02-20T11:04:00.922Z,11.12
2019-02-20T11:06:27.589Z,13.32
2019-02-20T11:08:54.109Z,11.55
2019-02-20T11:11:20.898Z,9.43
2019-02-20T11:13:47.557Z,12.13
2019-02-20T11:16:14.232Z,10.85
2019-02-20T11:18:43.644Z,9.40
2019-02-20T11:21:13.430Z,12.40
2019-02-20T11:23:42.116Z,14.47
2019-02-20T11:26:08.621Z,12.37
2019-02-20T11:28:35.258Z,10.58
2019-02-20T11:31:01.847Z,8.48
2019-02-20T11:33:28.503Z,10.38
2019-02-20T11:35:55.184Z,12.58
2019-02-20T11:38:21.943Z,8.65
2019-02-20T11:40:48.704Z,15.45
2019-02-20T11:43:15.656Z,11.10
2019-02-20T11:45:42.443Z,9.60
2019-02-20T11:48:09.608Z,14.80
2019-02-20T11:50:36.358Z,11.65
2019-02-20T11:53:03.132Z,14.63
2019-02-20T11:55:29.790Z,14.80
2019-02-20T11:58:00.721Z,22.10
2019-02-20T12:00:24.827Z,14.95
2019-02-20T12:02:51.597Z,19.73
2019-02-20T12:05:18.688Z,14.23
2019-02-20T12:07:45.649Z,18.57
2019-02-20T12:10:12.852Z,21.87
2019-02-20T12:12:39.994Z,15.40
2019-02-20T12:15:06.678Z,15.53
2019-02-20T12:17:33.405Z,13.80
2019-02-20T12:19:59.915Z,13.62
2019-02-20T12:22:26.635Z,12.78
2019-02-20T12:24:54.834Z,15.88
2019-02-20T12:27:21.860Z,13.05
2019-02-20T12:29:48.355Z,15.45
2019-02-20T12:32:15.335Z,16.32
2019-02-20T12:34:41.796Z,13.32
2019-02-20T12:37:08.531Z,10.58
2019-02-20T12:39:35.190Z,10.50
2019-02-20T12:42:01.977Z,12.33
2019-02-20T12:44:28.516Z,14.40
2019-02-20T12:46:55.247Z,13.80
2019-02-20T12:49:21.944Z,9.45
2019-02-20T12:51:48.603Z,18.67
2019-02-20T12:54:15.307Z,12.07
2019-02-20T12:56:44.036Z,13.38
2019-02-20T12:59:10.627Z,9.25
2019-02-20T13:01:37.297Z,11.55
2019-02-20T13:04:04.052Z,13.80
2019-02-20T13:06:30.614Z,18.37
2019-02-20T13:08:57.475Z,19.82
2019-02-20T13:11:24.114Z,19.48
2019-02-20T13:13:50.894Z,13.93
2019-02-20T13:16:17.554Z,15.10
2019-02-20T13:18:44.415Z,23.62
2019-02-20T13:21:11.117Z,15.28
2019-02-20T13:23:39.775Z,17.48
2019-02-20T13:26:06.439Z,16.30
2019-02-20T13:28:33.378Z,15.43
2019-02-20T13:31:00.115Z,12.18
2019-02-20T13:33:27.038Z,17.90
2019-02-20T13:35:53.698Z,24.15
2019-02-20T13:38:20.587Z,21.42
2019-02-20T13:40:47.319Z,17.42
2019-02-20T13:43:14.198Z,16.20
2019-02-20T13:45:44.170Z,13.38
2019-02-20T13:48:11.084Z,14.93
2019-02-20T13:50:37.766Z,19.52
2019-02-20T13:53:04.404Z,17.73
2019-02-20T13:55:34.424Z,16.37
2019-02-20T13:57:59.471Z,25.40
2019-02-20T14:00:26.099Z,12.33
2019-02-20T14:02:53.006Z,19.42
2019-02-20T14:05:19.860Z,17.73
2019-02-20T14:07:46.957Z,16.75
2019-02-20T14:10:13.518Z,13.20
2019-02-20T14:12:40.152Z,14.43
2019-02-20T14:15:06.831Z,18.60
2019-02-20T14:17:33.683Z,29.42
2019-02-20T14:20:00.317Z,20.32
2019-02-20T14:22:27.086Z,18.07
2019-02-20T14:24:54.266Z,15.83
2019-02-20T14:27:20.932Z,16.00
2019-02-20T14:29:50.715Z,12.80
2019-02-20T14:32:17.324Z,18.27
2019-02-20T14:34:45.498Z,16.37
2019-02-20T14:37:12.251Z,15.18
2019-02-20T14:39:39.044Z,21.68
2019-02-20T14:42:05.674Z,15.18
2019-02-20T14:44:32.972Z,16.20
2019-02-20T14:46:59.631Z,19.57
2019-02-20T14:49:26.299Z,11.15
2019-02-20T14:51:53.052Z,12.13
2019-02-20T14:54:19.815Z,21.90
2019-02-20T14:56:46.482Z,17.35
2019-02-20T14:59:13.176Z,17.75
2019-02-20T15:01:39.806Z,15.32
2019-02-20T15:04:06.919Z,27.98
2019-02-20T15:06:33.624Z,17.57
2019-02-20T15:09:00.405Z,14.43
2019-02-20T15:11:27.062Z,13.72
2019-02-20T15:13:55.435Z,17.60
2019-02-20T15:16:22.061Z,13.18
2019-02-20T15:18:48.667Z,15.13
2019-02-20T15:21:15.343Z,14.00
2019-02-20T15:23:42.262Z,16.55
2019-02-20T15:26:09.062Z,12.70
2019-02-20T15:28:35.821Z,10.35
2019-02-20T15:31:02.461Z,13.10
2019-02-20T15:33:29.122Z,10.25
2019-02-20T15:35:56.041Z,13.55
2019-02-20T15:38:22.844Z,17.77
2019-02-20T15:40:49.629Z,16.82
2019-02-20T15:43:16.726Z,15.68
2019-02-20T15:45:43.365Z,13.43
2019-02-20T15:48:10.003Z,13.62
2019-02-20T15:50:36.788Z,16.37
2019-02-20T15:53:03.470Z,14.07
2019-02-20T15:55:30.040Z,12.18
2019-02-20T15:57:56.871Z,11.40
2019-02-20T16:00:23.884Z,18.87
2019-02-20T16:02:51.488Z,15.20
2019-02-20T16:05:18.231Z,16.42
2019-02-20T16:07:44.900Z,12.85
2019-02-20T16:10:11.652Z,13.22
2019-02-20T16:12:38.248Z,13.15
2019-02-20T16:15:05.035Z,13.40
2019-02-20T16:17:31.935Z,12.47
2019-02-20T16:19:58.855Z,20.32
2019-02-20T16:22:25.624Z,9.88
2019-02-20T16:24:52.584Z,13.65
2019-02-20T16:27:19.258Z,15.93
2019-02-20T16:29:46.174Z,13.32
2019-02-20T16:32:12.659Z,15.88
2019-02-20T16:34:39.323Z,16.65
2019-02-20T16:37:06.921Z,13.98
2019-02-20T16:39:33.486Z,13.90
2019-02-20T16:42:00.127Z,12.35
2019-02-20T16:44:27.067Z,15.25
2019-02-20T16:46:53.568Z,17.42
2019-02-20T16:49:20.126Z,18.73
2019-02-20T16:51:46.607Z,15.40
2019-02-20T16:54:13.159Z,23.25
2019-02-20T16:56:39.559Z,42.75
2019-02-20T16:59:05.993Z,26.23
2019-02-20T17:01:32.528Z,31.37
2019-02-20T17:03:59.547Z,24.65
2019-02-20T17:06:26.046Z,20.20
2019-02-20T17:08:52.797Z,13.43
2019-02-20T17:11:19.375Z,21.30
2019-02-20T17:13:47.331Z,25.37
2019-02-20T17:16:13.901Z,14.53
2019-02-20T17:18:40.441Z,15.03
2019-02-20T17:21:06.927Z,15.65
2019-02-20T17:23:34.046Z,15.40
2019-02-20T17:26:00.544Z,17.75
2019-02-20T17:28:27.112Z,17.92
2019-02-20T17:30:53.631Z,21.10
2019-02-20T17:33:20.215Z,17.77
2019-02-20T17:35:46.871Z,17.75
2019-02-20T17:38:13.694Z,13.48
2019-02-20T17:40:40.347Z,16.20
2019-02-20T17:43:07.554Z,15.23
2019-02-20T17:45:35.044Z,14.13
2019-02-20T17:48:01.929Z,16.15
2019-02-20T17:50:28.724Z,15.08
2019-02-20T17:52:55.525Z,15.72
2019-02-20T17:55:22.278Z,16.25
2019-02-20T17:57:48.951Z,20.97
2019-02-20T18:00:16.021Z,18.95
2019-02-20T18:02:42.584Z,22.07
2019-02-20T18:05:09.760Z,27.13
2019-02-20T18:07:37.638Z,19.25
2019-02-20T18:10:04.668Z,25.45
2019-02-20T18:12:31.156Z,30.72
2019-02-20T18:14:57.828Z,29.77
2019-02-20T18:17:24.341Z,27.10
2019-02-20T18:19:51.422Z,24.67
2019-02-20T18:22:18.282Z,21.10
2019-02-20T18:24:44.882Z,20.50
2019-02-20T18:27:11.400Z,24.90
2019-02-20T18:29:38.526Z,23.22
2019-02-20T18:32:05.151Z,25.90
2019-02-20T18:34:31.766Z,18.10
2019-02-20T18:36:58.451Z,22.40
2019-02-20T18:39:25.343Z,23.73
2019-02-20T18:41:51.985Z,20.43
2019-02-20T18:44:18.474Z,19.07
2019-02-20T18:46:45.035Z,20.85
2019-02-20T18:49:11.893Z,20.52
2019-02-20T18:51:38.493Z,18.55
2019-02-20T18:54:05.068Z,22.22
2019-02-20T18:56:33.948Z,22.80
2019-02-20T18:59:00.217Z,20.77
2019-02-20T19:01:26.950Z,28.90
2019-02-20T19:03:53.763Z,30.48
2019-02-20T19:06:20.655Z,23.18
2019-02-20T19:08:47.345Z,23.10
2019-02-20T19:11:14.220Z,27.77
2019-02-20T19:13:40.846Z,21.97
2019-02-20T19:16:07.907Z,21.05
2019-02-20T19:18:34.534Z,32.45
2019-02-20T19:21:01.292Z,25.37
2019-02-20T19:23:28.001Z,23.83
2019-02-20T19:25:54.878Z,28.30
2019-02-20T19:28:21.545Z,29.30
2019-02-20T19:30:48.444Z,28.42
2019-02-20T19:33:15.043Z,31.97
2019-02-20T19:35:41.801Z,38.42
2019-02-20T19:38:09.517Z,23.12
2019-02-20T19:40:36.542Z,27.10
2019-02-20T19:43:03.013Z,19.00
2019-02-20T19:45:29.891Z,21.30
2019-02-20T19:47:56.655Z,33.38
2019-02-20T19:50:23.602Z,19.60
2019-02-20T19:52:50.580Z,19.90
2019-02-20T19:55:17.405Z,23.55
2019-02-20T19:57:44.001Z,18.20
2019-02-20T20:00:10.823Z,25.65
2019-02-20T20:02:37.419Z,28.45
2019-02-20T20:05:04.264Z,20.85
2019-02-20T20:07:31.203Z,24.80
2019-02-20T20:09:58.074Z,20.40
2019-02-20T20:12:25.003Z,20.77
2019-02-20T20:14:51.494Z,23.18
2019-02-20T20:17:18.238Z,25.17
2019-02-20T20:19:44.998Z,17.85
2019-02-20T20:22:11.951Z,19.15
2019-02-20T20:24:38.758Z,20.08
2019-02-20T20:27:05.826Z,28.12
2019-02-20T20:29:32.289Z,20.82
2019-02-20T20:31:59.078Z,61.30
2019-02-20T20:34:25.780Z,448.07
2019-02-20T20:36:52.530Z,309.67
2019-02-20T20:39:19.350Z,214.12
2019-02-20T20:41:46.089Z,38.28
2019-02-20T20:44:12.769Z,22.60
2019-02-20T20:46:39.609Z,20.60
2019-02-20T20:49:06.176Z,20.57
2019-02-20T20:51:32.993Z,20.77
2019-02-20T20:53:59.702Z,27.65
2019-02-20T20:56:26.357Z,27.05
2019-02-20T20:58:53.017Z,26.45
2019-02-20T21:01:19.825Z,23.73
2019-02-20T21:03:46.449Z,21.10
2019-02-20T21:06:13.240Z,23.22
2019-02-20T21:08:39.895Z,23.30
2019-02-20T21:11:06.837Z,25.05
2019-02-20T21:13:34.853Z,26.20
2019-02-20T21:16:01.715Z,25.57
2019-02-20T21:18:28.505Z,27.70
2019-02-20T21:20:55.251Z,27.42
2019-02-20T21:23:21.922Z,31.20
2019-02-20T21:25:48.841Z,31.35
2019-02-20T21:28:15.440Z,25.70
2019-02-20T21:30:42.315Z,40.73
2019-02-20T21:33:08.991Z,23.90
2019-02-20T21:35:36.040Z,29.00
2019-02-20T21:38:02.683Z,31.15
2019-02-20T21:40:29.328Z,25.80
2019-02-20T21:42:55.981Z,29.40
2019-02-20T21:45:25.137Z,27.37
2019-02-20T21:47:51.491Z,23.85
2019-02-20T21:50:18.142Z,25.35
2019-02-20T21:52:44.877Z,22.73
2019-02-20T21:55:11.868Z,17.37
2019-02-20T21:57:39.292Z,20.80
2019-02-20T22:00:06.261Z,23.22
2019-02-20T22:02:32.937Z,21.02
2019-02-20T22:04:59.441Z,17.65
2019-02-20T22:07:28.509Z,21.97
2019-02-20T22:09:58.178Z,20.30
2019-02-20T22:12:23.711Z,22.52
2019-02-20T22:14:50.410Z,19.48
2019-02-20T22:17:17.201Z,29.02
2019-02-20T22:19:43.998Z,18.17
2019-02-20T22:22:10.817Z,27.30
2019-02-20T22:24:39.633Z,20.92
2019-02-20T22:27:06.139Z,17.92
2019-02-20T22:29:33.110Z,18.30
2019-02-20T22:32:00.735Z,14.30
2019-02-20T22:34:27.634Z,20.00
2019-02-20T22:36:54.595Z,21.93
2019-02-20T22:39:21.260Z,16.73
2019-02-20T22:41:48.342Z,20.45
2019-02-20T22:44:15.163Z,17.73
2019-02-20T22:46:41.920Z,27.50
2019-02-20T22:49:08.828Z,26.45
2019-02-20T22:51:35.807Z,19.50
2019-02-20T22:54:02.763Z,20.12
2019-02-20T22:56:31.083Z,18.65
2019-02-20T22:58:57.723Z,23.20
2019-02-20T23:01:24.690Z,22.65
2019-02-20T23:03:51.311Z,22.67
2019-02-20T23:06:18.193Z,19.17
2019-02-20T23:08:48.225Z,20.40
2019-02-20T23:11:15.180Z,18.50
2019-02-20T23:13:41.987Z,23.07
2019-02-20T23:16:09.060Z,15.83
2019-02-20T23:18:35.671Z,18.90
2019-02-20T23:21:02.425Z,16.48
2019-02-20T23:23:29.132Z,16.27
2019-02-20T23:25:56.099Z,16.67
2019-02-20T23:28:23.066Z,15.00
2019-02-20T23:30:49.928Z,22.20
2019-02-20T23:33:16.965Z,17.57
2019-02-20T23:35:43.565Z,22.30
2019-02-20T23:38:10.314Z,19.17
2019-02-20T23:40:37.184Z,17.85
2019-02-20T23:43:04.048Z,18.42
2019-02-20T23:45:30.727Z,19.77
2019-02-20T23:48:07.093Z,19.05
2019-02-20T23:50:33.745Z,25.02
2019-02-20T23:53:00.510Z,18.95
2019-02-20T23:55:27.064Z,20.70
2019-02-20T23:57:54.236Z,15.75
